Ellenburg Center, New York
Current Conditions -  °F | °C
As of 7:53 PM on Wednesday 22 Oct 2014 (Local Time) from KPBG Reporting Station
Overcast Overcast  
Wind Chill: 11°   Ceiling: 9000
Heat Index: 11°   Visibility: 10mi
Dew Point:   Wind: 18mph
Humidity: 63%   Direction: 360°N
Pressure: 30.16"   Gusts: 28mph
Location:  44.86°N, 73.9°W
Report Text: KPBG 222353Z AUTO 36016G24KT 10SM OVC090 11/04 A3016 RMK AO2 PK WND 36026/2315 SLP214 T01060039 10117 20106 58001
Loading
Personal Weather Stations






























Interactive Weather Map
Tropical Storm Tracking
New forecast layout! Learn more

10-Day Weather Forecast

Advertisements
Track Severe Weather on mobile